Rye, NH

8:49 AM EDT on March 31, 2015 (GMT -0400)
Greenland, NH | | Change Station
CLOSE
Current Station
Personal Weather Station
Location: Greenland, NH
Elevation: 96 ft
Nearby Weather Stations

Elev 96 ft 43.03 °N, 70.83 °W | Updated 9 minutes ago

Mostly Cloudy
Mostly Cloudy
38.0 °F
Feels Like 38 °F
N
1.0
Wind Variable Wind from WSW
Gusts 13.0 mph

Today
High -- | Low -- °F
--% Chance of Precip.
Yesterday
High -- | Low -- °F
Precip. -- in
6:27 AM 7:07 PM
Waxing Gibbous, 86% visible
Pressure 29.72 in
Visibility 10.0 miles
Clouds Few 15000 ft
Mostly Cloudy 25000 ft
Windchill 38 °F
Dew Point 23 °F
Humidity 55%
Rainfall 0.00 in
Snow Depth Not available.
UV 1 out of 12
Pollen 4.90 out of 12
Air Quality Not available.
Flu Activity Not available.
METAR KPSM 311158Z 30011G17KT 10SM FEW150 BKN250 03/M06 A2971 RMK AO2A SLP064 T00251061 10025 20005 52018

More Conditions Fewer Conditions

Pressure 29.72 in
Visibility 10.0 miles
Clouds Few 15000 ft
Mostly Cloudy 25000 ft
Windchill 38 °F
Dew Point 23 °F
Humidity 55%
Rainfall 0.00 in
Snow Depth Not available.
UV 1 out of 12
Pollen 4.90 out of 12
Air Quality Not available.
Flu Activity Not available.
METAR KPSM 311158Z 30011G17KT 10SM FEW150 BKN250 03/M06 A2971 RMK AO2A SLP064 T00251061 10025 20005 52018

More Conditions Fewer Conditions

10-Day Weather Forecast

Almanac

Astronomy

Mar. 31, 2015 Rise Set
Actual Time
Civil Twilight
Nautical Twilight
Astronomical Twilight
Moon
Length of Visible Light
Length of Day
Tomorrow will be .
, % of the Moon is Illuminated

Today's Extremes

State Highs State Lows

Community

WunderPhotos

Upload Photos

1,809,754 photos uploaded!

WunderBlogs® & News

Nearby

Air Quality

  Air Quality AQ Index Pollutant
Not available.

Snow Depth

Station Depth Elevation

Earthquake Activity

City Distance Mag. Time & Date
Minimum magnitude displayed is 2.5.

Coastal Water Temperatures

Place Temperature

Stations

Nearby Weather Stations

Station Location Temp. Windchill Dew Point Humidity Wind Precip. Elev Updated Type